sensor_id;sensor_type;location;lat;lon;timestamp;temperature;humidity
17619;DHT22;8928;51.678;6.074;2023-09-18T00:03:33;17.90;99.90
17619;DHT22;8928;51.678;6.074;2023-09-18T00:06:22;18.00;99.90
17619;DHT22;8928;51.678;6.074;2023-09-18T00:09:11;18.00;99.90
17619;DHT22;8928;51.678;6.074;2023-09-18T00:11:59;18.10;99.90
17619;DHT22;8928;51.678;6.074;2023-09-18T00:14:48;18.10;99.90
17619;DHT22;8928;51.678;6.074;2023-09-18T00:17:35;18.20;99.90
17619;DHT22;8928;51.678;6.074;2023-09-18T00:20:23;18.20;99.90
17619;DHT22;8928;51.678;6.074;2023-09-18T00:25:52;18.30;99.90
17619;DHT22;8928;51.678;6.074;2023-09-18T00:28:39;18.30;99.90
17619;DHT22;8928;51.678;6.074;2023-09-18T00:31:26;18.30;99.90
17619;DHT22;8928;51.678;6.074;2023-09-18T00:34:13;18.30;99.90
17619;DHT22;8928;51.678;6.074;2023-09-18T00:37:02;18.20;99.90
17619;DHT22;8928;51.678;6.074;2023-09-18T00:39:52;18.20;99.90
17619;DHT22;8928;51.678;6.074;2023-09-18T00:42:39;18.20;99.90
17619;DHT22;8928;51.678;6.074;2023-09-18T00:45:26;18.20;99.90
17619;DHT22;8928;51.678;6.074;2023-09-18T00:48:14;18.30;99.90
17619;DHT22;8928;51.678;6.074;2023-09-18T00:51:02;18.30;99.90
17619;DHT22;8928;51.678;6.074;2023-09-18T00:53:51;18.20;99.90
17619;DHT22;8928;51.678;6.074;2023-09-18T00:56:38;18.20;99.90
17619;DHT22;8928;51.678;6.074;2023-09-18T00:59:25;18.30;99.90
17619;DHT22;8928;51.678;6.074;2023-09-18T01:02:12;18.30;99.90
17619;DHT22;8928;51.678;6.074;2023-09-18T01:04:59;18.30;99.90
17619;DHT22;8928;51.678;6.074;2023-09-18T01:07:47;18.30;99.90
17619;DHT22;8928;51.678;6.074;2023-09-18T01:10:40;18.30;99.90
17619;DHT22;8928;51.678;6.074;2023-09-18T01:13:37;18.40;99.90
17619;DHT22;8928;51.678;6.074;2023-09-18T01:16:34;18.40;99.90
17619;DHT22;8928;51.678;6.074;2023-09-18T01:19:36;18.30;99.90
17619;DHT22;8928;51.678;6.074;2023-09-18T01:22:23;18.30;99.90
17619;DHT22;8928;51.678;6.074;2023-09-18T01:25:11;18.30;99.90
17619;DHT22;8928;51.678;6.074;2023-09-18T01:27:58;18.40;99.90
17619;DHT22;8928;51.678;6.074;2023-09-18T01:30:45;18.40;99.90
17619;DHT22;8928;51.678;6.074;2023-09-18T01:33:34;18.40;99.90
17619;DHT22;8928;51.678;6.074;2023-09-18T01:36:21;18.40;99.90
17619;DHT22;8928;51.678;6.074;2023-09-18T01:39:10;18.50;99.90
17619;DHT22;8928;51.678;6.074;2023-09-18T01:41:59;18.50;99.90
17619;DHT22;8928;51.678;6.074;2023-09-18T01:44:47;18.50;99.90
17619;DHT22;8928;51.678;6.074;2023-09-18T01:47:34;18.50;99.90
17619;DHT22;8928;51.678;6.074;2023-09-18T01:50:22;18.60;99.90
17619;DHT22;8928;51.678;6.074;2023-09-18T01:53:09;18.60;99.90
17619;DHT22;8928;51.678;6.074;2023-09-18T01:55:56;18.60;99.90
17619;DHT22;8928;51.678;6.074;2023-09-18T01:58:44;18.60;99.90
17619;DHT22;8928;51.678;6.074;2023-09-18T02:01:31;18.70;99.90
17619;DHT22;8928;51.678;6.074;2023-09-18T02:04:19;18.70;99.90
17619;DHT22;8928;51.678;6.074;2023-09-18T02:07:06;18.70;99.90
17619;DHT22;8928;51.678;6.074;2023-09-18T02:09:53;18.70;99.90
17619;DHT22;8928;51.678;6.074;2023-09-18T02:12:40;18.60;99.90
17619;DHT22;8928;51.678;6.074;2023-09-18T02:15:29;18.70;99.90
17619;DHT22;8928;51.678;6.074;2023-09-18T02:18:18;18.70;99.90
17619;DHT22;8928;51.678;6.074;2023-09-18T02:21:05;18.60;99.90
17619;DHT22;8928;51.678;6.074;2023-09-18T02:23:53;18.70;99.90
17619;DHT22;8928;51.678;6.074;2023-09-18T02:26:41;18.60;99.90
17619;DHT22;8928;51.678;6.074;2023-09-18T02:29:28;18.60;99.90
17619;DHT22;8928;51.678;6.074;2023-09-18T02:32:17;18.60;99.90
17619;DHT22;8928;51.678;6.074;2023-09-18T02:35:05;18.70;99.90
17619;DHT22;8928;51.678;6.074;2023-09-18T02:37:53;18.70;99.90
17619;DHT22;8928;51.678;6.074;2023-09-18T02:40:40;18.70;99.90
17619;DHT22;8928;51.678;6.074;2023-09-18T02:43:27;18.60;99.90
17619;DHT22;8928;51.678;6.074;2023-09-18T02:46:14;18.70;99.90
17619;DHT22;8928;51.678;6.074;2023-09-18T02:49:02;18.70;99.90
17619;DHT22;8928;51.678;6.074;2023-09-18T02:51:49;18.70;99.90
17619;DHT22;8928;51.678;6.074;2023-09-18T02:54:36;18.70;99.90
17619;DHT22;8928;51.678;6.074;2023-09-18T02:57:24;18.60;99.90
17619;DHT22;8928;51.678;6.074;2023-09-18T03:00:11;18.70;99.90
17619;DHT22;8928;51.678;6.074;2023-09-18T03:02:58;18.70;99.90
17619;DHT22;8928;51.678;6.074;2023-09-18T03:05:47;18.70;99.90
17619;DHT22;8928;51.678;6.074;2023-09-18T03:08:34;18.60;99.90
17619;DHT22;8928;51.678;6.074;2023-09-18T03:11:21;18.60;99.90
17619;DHT22;8928;51.678;6.074;2023-09-18T03:14:12;18.60;99.90
17619;DHT22;8928;51.678;6.074;2023-09-18T03:17:00;18.60;99.90
17619;DHT22;8928;51.678;6.074;2023-09-18T03:19:47;18.60;99.90
17619;DHT22;8928;51.678;6.074;2023-09-18T03:22:36;18.60;99.90
17619;DHT22;8928;51.678;6.074;2023-09-18T03:25:23;18.60;99.90
17619;DHT22;8928;51.678;6.074;2023-09-18T03:28:10;18.60;99.90
17619;DHT22;8928;51.678;6.074;2023-09-18T03:30:57;18.60;99.90
17619;DHT22;8928;51.678;6.074;2023-09-18T03:33:44;18.60;99.90
17619;DHT22;8928;51.678;6.074;2023-09-18T03:36:32;18.60;99.90
17619;DHT22;8928;51.678;6.074;2023-09-18T03:39:22;18.60;99.90
17619;DHT22;8928;51.678;6.074;2023-09-18T03:42:09;18.50;99.90
17619;DHT22;8928;51.678;6.074;2023-09-18T03:44:56;18.50;99.90
17619;DHT22;8928;51.678;6.074;2023-09-18T03:47:43;18.50;99.90
17619;DHT22;8928;51.678;6.074;2023-09-18T03:50:30;18.50;99.90
17619;DHT22;8928;51.678;6.074;2023-09-18T03:53:17;18.50;99.90
17619;DHT22;8928;51.678;6.074;2023-09-18T03:56:06;18.50;99.90
17619;DHT22;8928;51.678;6.074;2023-09-18T03:58:53;18.50;99.90
17619;DHT22;8928;51.678;6.074;2023-09-18T04:01:40;18.50;99.90
17619;DHT22;8928;51.678;6.074;2023-09-18T04:04:27;18.50;99.90
17619;DHT22;8928;51.678;6.074;2023-09-18T04:07:14;18.50;99.90
17619;DHT22;8928;51.678;6.074;2023-09-18T04:10:02;18.70;99.90
17619;DHT22;8928;51.678;6.074;2023-09-18T04:18:03;18.80;99.90
17619;DHT22;8928;51.678;6.074;2023-09-18T04:20:50;18.90;99.90
17619;DHT22;8928;51.678;6.074;2023-09-18T04:23:38;18.90;99.90
17619;DHT22;8928;51.678;6.074;2023-09-18T04:26:25;18.90;99.90
17619;DHT22;8928;51.678;6.074;2023-09-18T04:29:15;18.90;99.90
17619;DHT22;8928;51.678;6.074;2023-09-18T04:32:03;18.90;99.90
17619;DHT22;8928;51.678;6.074;2023-09-18T04:34:52;18.90;99.90
17619;DHT22;8928;51.678;6.074;2023-09-18T04:37:39;18.90;99.90
17619;DHT22;8928;51.678;6.074;2023-09-18T04:40:26;18.90;99.90
17619;DHT22;8928;51.678;6.074;2023-09-18T04:43:17;18.90;99.90
17619;DHT22;8928;51.678;6.074;2023-09-18T04:46:04;18.80;99.90
17619;DHT22;8928;51.678;6.074;2023-09-18T04:48:51;18.80;99.90
17619;DHT22;8928;51.678;6.074;2023-09-18T04:51:40;18.80;99.90
17619;DHT22;8928;51.678;6.074;2023-09-18T04:54:27;18.70;99.90
17619;DHT22;8928;51.678;6.074;2023-09-18T04:57:14;18.70;99.90
17619;DHT22;8928;51.678;6.074;2023-09-18T05:00:02;18.70;99.90
17619;DHT22;8928;51.678;6.074;2023-09-18T05:02:50;18.60;99.90
17619;DHT22;8928;51.678;6.074;2023-09-18T05:05:38;18.60;99.90
17619;DHT22;8928;51.678;6.074;2023-09-18T05:08:26;18.60;99.90
17619;DHT22;8928;51.678;6.074;2023-09-18T05:11:13;18.60;99.90
17619;DHT22;8928;51.678;6.074;2023-09-18T05:14:00;18.50;99.90
17619;DHT22;8928;51.678;6.074;2023-09-18T05:16:47;18.50;99.90
17619;DHT22;8928;51.678;6.074;2023-09-18T05:19:34;18.50;99.90
17619;DHT22;8928;51.678;6.074;2023-09-18T05:22:21;18.50;99.90
17619;DHT22;8928;51.678;6.074;2023-09-18T05:25:10;18.50;99.90
17619;DHT22;8928;51.678;6.074;2023-09-18T05:27:58;18.50;99.90
17619;DHT22;8928;51.678;6.074;2023-09-18T05:30:45;18.50;99.90
17619;DHT22;8928;51.678;6.074;2023-09-18T05:33:32;18.50;99.90
17619;DHT22;8928;51.678;6.074;2023-09-18T05:36:19;18.40;99.90
17619;DHT22;8928;51.678;6.074;2023-09-18T05:39:08;18.40;99.90
17619;DHT22;8928;51.678;6.074;2023-09-18T05:41:58;18.40;99.90
17619;DHT22;8928;51.678;6.074;2023-09-18T05:44:45;18.40;99.90
17619;DHT22;8928;51.678;6.074;2023-09-18T05:47:32;18.50;99.90
17619;DHT22;8928;51.678;6.074;2023-09-18T05:50:19;18.50;99.90
17619;DHT22;8928;51.678;6.074;2023-09-18T05:53:13;18.50;99.90
17619;DHT22;8928;51.678;6.074;2023-09-18T05:56:00;18.60;99.90
17619;DHT22;8928;51.678;6.074;2023-09-18T05:58:51;18.60;99.90
17619;DHT22;8928;51.678;6.074;2023-09-18T06:01:38;18.70;99.90
17619;DHT22;8928;51.678;6.074;2023-09-18T06:04:25;18.70;99.90
17619;DHT22;8928;51.678;6.074;2023-09-18T06:07:12;18.80;99.90
17619;DHT22;8928;51.678;6.074;2023-09-18T06:09:59;18.80;99.90
17619;DHT22;8928;51.678;6.074;2023-09-18T06:12:46;18.80;99.90
17619;DHT22;8928;51.678;6.074;2023-09-18T06:15:35;18.90;99.90
17619;DHT22;8928;51.678;6.074;2023-09-18T06:18:22;18.90;99.90
17619;DHT22;8928;51.678;6.074;2023-09-18T06:21:09;18.90;99.90
17619;DHT22;8928;51.678;6.074;2023-09-18T06:23:56;19.00;99.90
17619;DHT22;8928;51.678;6.074;2023-09-18T06:26:43;19.00;99.90
17619;DHT22;8928;51.678;6.074;2023-09-18T06:29:30;19.00;99.90
17619;DHT22;8928;51.678;6.074;2023-09-18T06:32:19;19.00;99.90
17619;DHT22;8928;51.678;6.074;2023-09-18T06:35:06;19.00;99.90
17619;DHT22;8928;51.678;6.074;2023-09-18T06:37:53;19.00;99.90
17619;DHT22;8928;51.678;6.074;2023-09-18T06:40:44;19.00;99.90
17619;DHT22;8928;51.678;6.074;2023-09-18T06:43:31;19.00;99.90
17619;DHT22;8928;51.678;6.074;2023-09-18T06:46:18;19.00;99.90
17619;DHT22;8928;51.678;6.074;2023-09-18T06:49:06;19.10;99.90
17619;DHT22;8928;51.678;6.074;2023-09-18T06:51:53;19.10;99.90
17619;DHT22;8928;51.678;6.074;2023-09-18T06:54:41;19.20;99.90
17619;DHT22;8928;51.678;6.074;2023-09-18T06:57:29;19.30;99.90
17619;DHT22;8928;51.678;6.074;2023-09-18T07:00:17;19.40;99.90
17619;DHT22;8928;51.678;6.074;2023-09-18T07:03:06;19.50;99.90
17619;DHT22;8928;51.678;6.074;2023-09-18T07:05:56;19.50;99.90
17619;DHT22;8928;51.678;6.074;2023-09-18T07:08:43;19.60;99.90
17619;DHT22;8928;51.678;6.074;2023-09-18T07:11:30;19.70;99.90
17619;DHT22;8928;51.678;6.074;2023-09-18T07:14:17;19.70;99.90
17619;DHT22;8928;51.678;6.074;2023-09-18T07:17:04;19.70;99.90
17619;DHT22;8928;51.678;6.074;2023-09-18T07:19:51;19.70;99.90
17619;DHT22;8928;51.678;6.074;2023-09-18T07:22:40;19.80;99.90
17619;DHT22;8928;51.678;6.074;2023-09-18T07:25:27;19.80;99.90
17619;DHT22;8928;51.678;6.074;2023-09-18T07:28:14;19.90;99.90
17619;DHT22;8928;51.678;6.074;2023-09-18T07:31:05;19.90;99.90
17619;DHT22;8928;51.678;6.074;2023-09-18T07:33:53;19.90;99.90
17619;DHT22;8928;51.678;6.074;2023-09-18T07:36:40;19.90;99.90
17619;DHT22;8928;51.678;6.074;2023-09-18T07:39:28;19.90;99.90
17619;DHT22;8928;51.678;6.074;2023-09-18T07:42:15;20.00;99.90
17619;DHT22;8928;51.678;6.074;2023-09-18T07:45:02;20.00;99.90
17619;DHT22;8928;51.678;6.074;2023-09-18T07:47:50;20.00;99.90
17619;DHT22;8928;51.678;6.074;2023-09-18T07:50:37;19.90;99.90
17619;DHT22;8928;51.678;6.074;2023-09-18T07:53:24;19.90;99.90
17619;DHT22;8928;51.678;6.074;2023-09-18T07:56:12;19.80;99.90
17619;DHT22;8928;51.678;6.074;2023-09-18T07:58:59;19.80;99.90
17619;DHT22;8928;51.678;6.074;2023-09-18T08:01:47;19.90;99.90
17619;DHT22;8928;51.678;6.074;2023-09-18T08:04:34;19.90;99.90
17619;DHT22;8928;51.678;6.074;2023-09-18T08:07:21;20.00;99.90
17619;DHT22;8928;51.678;6.074;2023-09-18T08:10:09;20.10;99.90
17619;DHT22;8928;51.678;6.074;2023-09-18T08:12:57;20.20;99.90
17619;DHT22;8928;51.678;6.074;2023-09-18T08:15:44;20.20;99.90
17619;DHT22;8928;51.678;6.074;2023-09-18T08:18:31;20.30;99.90
17619;DHT22;8928;51.678;6.074;2023-09-18T08:21:18;20.30;99.90
17619;DHT22;8928;51.678;6.074;2023-09-18T08:24:05;20.40;99.90
17619;DHT22;8928;51.678;6.074;2023-09-18T08:26:53;20.50;99.90
17619;DHT22;8928;51.678;6.074;2023-09-18T08:29:42;20.60;99.90
17619;DHT22;8928;51.678;6.074;2023-09-18T08:32:29;20.60;99.90
17619;DHT22;8928;51.678;6.074;2023-09-18T08:35:05;20.60;99.90
17619;DHT22;8928;51.678;6.074;2023-09-18T08:37:52;20.70;99.90
17619;DHT22;8928;51.678;6.074;2023-09-18T08:40:40;20.60;99.90
17619;DHT22;8928;51.678;6.074;2023-09-18T08:43:27;20.70;99.90
17619;DHT22;8928;51.678;6.074;2023-09-18T08:46:17;20.70;99.90
17619;DHT22;8928;51.678;6.074;2023-09-18T08:49:04;20.70;99.90
17619;DHT22;8928;51.678;6.074;2023-09-18T08:51:54;20.80;99.90
17619;DHT22;8928;51.678;6.074;2023-09-18T08:54:42;21.00;99.90
17619;DHT22;8928;51.678;6.074;2023-09-18T08:57:30;21.10;99.90
17619;DHT22;8928;51.678;6.074;2023-09-18T09:00:17;21.30;99.90
17619;DHT22;8928;51.678;6.074;2023-09-18T09:03:06;21.40;99.90
17619;DHT22;8928;51.678;6.074;2023-09-18T09:05:53;21.50;99.90
17619;DHT22;8928;51.678;6.074;2023-09-18T09:08:40;21.60;99.90
17619;DHT22;8928;51.678;6.074;2023-09-18T09:11:27;21.60;99.90
17619;DHT22;8928;51.678;6.074;2023-09-18T09:14:14;21.60;99.90
17619;DHT22;8928;51.678;6.074;2023-09-18T09:17:04;21.60;99.90
17619;DHT22;8928;51.678;6.074;2023-09-18T09:20:08;21.60;99.90
17619;DHT22;8928;51.678;6.074;2023-09-18T09:23:00;21.50;99.90
17619;DHT22;8928;51.678;6.074;2023-09-18T09:25:47;21.50;99.90
17619;DHT22;8928;51.678;6.074;2023-09-18T09:28:34;21.40;99.90
17619;DHT22;8928;51.678;6.074;2023-09-18T09:31:25;21.20;99.90
17619;DHT22;8928;51.678;6.074;2023-09-18T09:34:24;21.20;99.90
17619;DHT22;8928;51.678;6.074;2023-09-18T09:37:14;21.30;99.90
17619;DHT22;8928;51.678;6.074;2023-09-18T09:40:03;21.30;99.90
17619;DHT22;8928;51.678;6.074;2023-09-18T09:42:55;21.30;99.90
17619;DHT22;8928;51.678;6.074;2023-09-18T09:45:46;21.50;99.90
17619;DHT22;8928;51.678;6.074;2023-09-18T09:48:33;21.90;99.90
17619;DHT22;8928;51.678;6.074;2023-09-18T09:51:20;22.40;99.90
17619;DHT22;8928;51.678;6.074;2023-09-18T09:54:09;22.60;99.90
17619;DHT22;8928;51.678;6.074;2023-09-18T09:57:02;22.80;99.90
17619;DHT22;8928;51.678;6.074;2023-09-18T09:59:50;22.90;99.90
17619;DHT22;8928;51.678;6.074;2023-09-18T10:02:37;23.20;99.90
17619;DHT22;8928;51.678;6.074;2023-09-18T10:05:27;23.50;99.90
17619;DHT22;8928;51.678;6.074;2023-09-18T10:08:19;23.70;99.90
17619;DHT22;8928;51.678;6.074;2023-09-18T10:11:13;23.80;99.90
17619;DHT22;8928;51.678;6.074;2023-09-18T10:14:07;23.80;99.90
17619;DHT22;8928;51.678;6.074;2023-09-18T10:16:57;24.00;99.90
17619;DHT22;8928;51.678;6.074;2023-09-18T10:19:51;24.40;99.90
17619;DHT22;8928;51.678;6.074;2023-09-18T10:22:43;24.50;99.90
17619;DHT22;8928;51.678;6.074;2023-09-18T10:25:32;24.40;99.90
17619;DHT22;8928;51.678;6.074;2023-09-18T10:28:22;24.50;99.90
17619;DHT22;8928;51.678;6.074;2023-09-18T10:31:12;24.30;99.90
17619;DHT22;8928;51.678;6.074;2023-09-18T10:34:01;23.70;99.90
17619;DHT22;8928;51.678;6.074;2023-09-18T10:36:51;23.50;99.90
17619;DHT22;8928;51.678;6.074;2023-09-18T10:39:39;23.60;99.90
17619;DHT22;8928;51.678;6.074;2023-09-18T10:42:28;23.60;99.90
17619;DHT22;8928;51.678;6.074;2023-09-18T10:45:17;23.70;99.90
17619;DHT22;8928;51.678;6.074;2023-09-18T10:48:06;23.40;99.90
17619;DHT22;8928;51.678;6.074;2023-09-18T10:50:54;23.20;99.90
17619;DHT22;8928;51.678;6.074;2023-09-18T10:53:44;23.40;99.90
17619;DHT22;8928;51.678;6.074;2023-09-18T10:56:32;23.40;99.90
17619;DHT22;8928;51.678;6.074;2023-09-18T10:59:20;23.40;99.90
17619;DHT22;8928;51.678;6.074;2023-09-18T11:02:08;23.20;99.90
17619;DHT22;8928;51.678;6.074;2023-09-18T11:04:57;23.40;99.90
17619;DHT22;8928;51.678;6.074;2023-09-18T11:07:44;23.90;99.90
17619;DHT22;8928;51.678;6.074;2023-09-18T11:10:31;24.40;99.90
17619;DHT22;8928;51.678;6.074;2023-09-18T11:13:28;24.90;99.90
17619;DHT22;8928;51.678;6.074;2023-09-18T11:16:18;25.30;99.90
17619;DHT22;8928;51.678;6.074;2023-09-18T11:19:09;25.10;99.90
17619;DHT22;8928;51.678;6.074;2023-09-18T11:22:07;24.70;99.90
17619;DHT22;8928;51.678;6.074;2023-09-18T11:25:30;24.40;99.90
17619;DHT22;8928;51.678;6.074;2023-09-18T11:28:23;24.50;99.90
17619;DHT22;8928;51.678;6.074;2023-09-18T11:31:11;24.70;99.90
17619;DHT22;8928;51.678;6.074;2023-09-18T11:34:12;25.00;99.90
17619;DHT22;8928;51.678;6.074;2023-09-18T11:37:00;25.40;99.90
17619;DHT22;8928;51.678;6.074;2023-09-18T11:39:48;25.90;99.90
17619;DHT22;8928;51.678;6.074;2023-09-18T11:42:36;26.10;99.90
17619;DHT22;8928;51.678;6.074;2023-09-18T11:45:23;26.10;99.90
17619;DHT22;8928;51.678;6.074;2023-09-18T11:48:10;25.90;99.90
17619;DHT22;8928;51.678;6.074;2023-09-18T11:51:00;25.90;99.90
17619;DHT22;8928;51.678;6.074;2023-09-18T11:53:54;25.90;99.90
17619;DHT22;8928;51.678;6.074;2023-09-18T11:56:42;26.00;99.90
17619;DHT22;8928;51.678;6.074;2023-09-18T11:59:37;25.90;99.90
17619;DHT22;8928;51.678;6.074;2023-09-18T12:02:26;25.20;99.90
17619;DHT22;8928;51.678;6.074;2023-09-18T12:05:15;24.60;99.90
17619;DHT22;8928;51.678;6.074;2023-09-18T12:08:05;24.40;99.90
17619;DHT22;8928;51.678;6.074;2023-09-18T12:10:54;24.90;99.90
17619;DHT22;8928;51.678;6.074;2023-09-18T12:13:41;25.30;99.90
17619;DHT22;8928;51.678;6.074;2023-09-18T12:16:28;25.90;99.90
17619;DHT22;8928;51.678;6.074;2023-09-18T12:19:16;26.30;99.90
17619;DHT22;8928;51.678;6.074;2023-09-18T12:22:03;26.00;99.90
17619;DHT22;8928;51.678;6.074;2023-09-18T12:24:52;25.70;99.90
17619;DHT22;8928;51.678;6.074;2023-09-18T12:27:39;25.40;99.90
17619;DHT22;8928;51.678;6.074;2023-09-18T12:30:26;24.90;99.90
17619;DHT22;8928;51.678;6.074;2023-09-18T12:33:13;24.30;99.90
17619;DHT22;8928;51.678;6.074;2023-09-18T12:36:01;24.00;99.90
17619;DHT22;8928;51.678;6.074;2023-09-18T12:38:55;23.60;99.90
17619;DHT22;8928;51.678;6.074;2023-09-18T12:41:44;23.40;99.90
17619;DHT22;8928;51.678;6.074;2023-09-18T12:44:32;23.40;99.90
17619;DHT22;8928;51.678;6.074;2023-09-18T12:47:19;23.90;99.90
17619;DHT22;8928;51.678;6.074;2023-09-18T12:50:07;24.70;99.90
17619;DHT22;8928;51.678;6.074;2023-09-18T12:53:10;25.50;99.90
17619;DHT22;8928;51.678;6.074;2023-09-18T12:56:08;25.90;99.90
17619;DHT22;8928;51.678;6.074;2023-09-18T12:58:58;26.50;99.90
17619;DHT22;8928;51.678;6.074;2023-09-18T13:01:46;27.00;99.90
17619;DHT22;8928;51.678;6.074;2023-09-18T13:04:35;27.20;99.90
17619;DHT22;8928;51.678;6.074;2023-09-18T13:07:23;27.70;99.90
17619;DHT22;8928;51.678;6.074;2023-09-18T13:10:13;27.90;99.90
17619;DHT22;8928;51.678;6.074;2023-09-18T13:13:01;28.20;99.90
17619;DHT22;8928;51.678;6.074;2023-09-18T13:15:50;28.10;99.90
17619;DHT22;8928;51.678;6.074;2023-09-18T13:18:37;28.20;99.90
17619;DHT22;8928;51.678;6.074;2023-09-18T13:21:26;28.70;99.90
17619;DHT22;8928;51.678;6.074;2023-09-18T13:24:24;28.90;99.90
17619;DHT22;8928;51.678;6.074;2023-09-18T13:27:11;29.00;99.90
17619;DHT22;8928;51.678;6.074;2023-09-18T13:29:58;28.90;99.90
17619;DHT22;8928;51.678;6.074;2023-09-18T13:33:02;29.20;99.90
17619;DHT22;8928;51.678;6.074;2023-09-18T13:35:49;28.60;99.90
17619;DHT22;8928;51.678;6.074;2023-09-18T13:38:36;27.40;99.90
17619;DHT22;8928;51.678;6.074;2023-09-18T13:41:23;26.60;99.90
17619;DHT22;8928;51.678;6.074;2023-09-18T13:44:10;26.00;99.90
17619;DHT22;8928;51.678;6.074;2023-09-18T13:46:57;25.30;99.90
17619;DHT22;8928;51.678;6.074;2023-09-18T13:49:47;24.80;99.90
17619;DHT22;8928;51.678;6.074;2023-09-18T13:52:35;24.50;99.90
17619;DHT22;8928;51.678;6.074;2023-09-18T13:55:22;25.60;99.90
17619;DHT22;8928;51.678;6.074;2023-09-18T13:58:09;26.80;99.90
17619;DHT22;8928;51.678;6.074;2023-09-18T14:00:56;27.40;99.90
17619;DHT22;8928;51.678;6.074;2023-09-18T14:03:43;28.30;99.90
17619;DHT22;8928;51.678;6.074;2023-09-18T14:06:32;28.80;99.90
17619;DHT22;8928;51.678;6.074;2023-09-18T14:09:19;29.10;99.90
17619;DHT22;8928;51.678;6.074;2023-09-18T14:12:07;29.30;99.90
17619;DHT22;8928;51.678;6.074;2023-09-18T14:14:54;29.70;99.90
17619;DHT22;8928;51.678;6.074;2023-09-18T14:17:41;29.70;99.90
17619;DHT22;8928;51.678;6.074;2023-09-18T14:20:28;30.10;99.90
17619;DHT22;8928;51.678;6.074;2023-09-18T14:23:17;30.00;99.90
17619;DHT22;8928;51.678;6.074;2023-09-18T14:26:04;30.20;99.90
17619;DHT22;8928;51.678;6.074;2023-09-18T14:28:51;30.10;99.90
17619;DHT22;8928;51.678;6.074;2023-09-18T14:31:38;30.10;99.90
17619;DHT22;8928;51.678;6.074;2023-09-18T14:34:25;29.60;99.90
17619;DHT22;8928;51.678;6.074;2023-09-18T14:37:12;29.20;99.90
17619;DHT22;8928;51.678;6.074;2023-09-18T14:40:01;29.30;99.90
17619;DHT22;8928;51.678;6.074;2023-09-18T14:42:48;29.40;99.90
17619;DHT22;8928;51.678;6.074;2023-09-18T14:45:35;29.40;99.90
17619;DHT22;8928;51.678;6.074;2023-09-18T14:48:24;29.30;99.90
17619;DHT22;8928;51.678;6.074;2023-09-18T14:51:11;29.30;99.90
17619;DHT22;8928;51.678;6.074;2023-09-18T14:53:58;29.20;99.90
17619;DHT22;8928;51.678;6.074;2023-09-18T14:56:47;28.90;99.90
17619;DHT22;8928;51.678;6.074;2023-09-18T14:59:34;28.40;99.90
17619;DHT22;8928;51.678;6.074;2023-09-18T15:02:21;28.30;99.90
17619;DHT22;8928;51.678;6.074;2023-09-18T15:05:13;28.30;99.90
17619;DHT22;8928;51.678;6.074;2023-09-18T15:08:03;27.90;99.90
17619;DHT22;8928;51.678;6.074;2023-09-18T15:10:50;27.70;99.90
17619;DHT22;8928;51.678;6.074;2023-09-18T15:13:39;27.70;99.90
17619;DHT22;8928;51.678;6.074;2023-09-18T15:16:26;27.80;99.90
17619;DHT22;8928;51.678;6.074;2023-09-18T15:19:15;27.90;99.90
17619;DHT22;8928;51.678;6.074;2023-09-18T15:22:03;27.70;99.90
17619;DHT22;8928;51.678;6.074;2023-09-18T15:24:51;27.60;99.90
17619;DHT22;8928;51.678;6.074;2023-09-18T15:27:38;27.40;99.90
17619;DHT22;8928;51.678;6.074;2023-09-18T15:30:26;27.40;99.90
17619;DHT22;8928;51.678;6.074;2023-09-18T15:33:13;27.70;99.90
17619;DHT22;8928;51.678;6.074;2023-09-18T15:36:03;26.90;99.90
17619;DHT22;8928;51.678;6.074;2023-09-18T15:38:50;26.20;99.90
17619;DHT22;8928;51.678;6.074;2023-09-18T15:41:37;26.10;99.90
17619;DHT22;8928;51.678;6.074;2023-09-18T15:44:24;25.80;99.90
17619;DHT22;8928;51.678;6.074;2023-09-18T15:47:12;25.40;99.90
17619;DHT22;8928;51.678;6.074;2023-09-18T15:49:59;24.90;99.90
17619;DHT22;8928;51.678;6.074;2023-09-18T15:52:47;24.40;99.90
17619;DHT22;8928;51.678;6.074;2023-09-18T15:55:34;24.00;99.90
17619;DHT22;8928;51.678;6.074;2023-09-18T15:58:21;23.60;99.90
17619;DHT22;8928;51.678;6.074;2023-09-18T16:01:09;23.30;99.90
17619;DHT22;8928;51.678;6.074;2023-09-18T16:03:58;23.00;99.90
17619;DHT22;8928;51.678;6.074;2023-09-18T16:06:46;22.70;99.90
17619;DHT22;8928;51.678;6.074;2023-09-18T16:09:33;22.30;99.90
17619;DHT22;8928;51.678;6.074;2023-09-18T16:12:20;21.30;99.90
17619;DHT22;8928;51.678;6.074;2023-09-18T16:15:08;20.40;99.90
17619;DHT22;8928;51.678;6.074;2023-09-18T16:17:55;19.70;99.90
17619;DHT22;8928;51.678;6.074;2023-09-18T16:20:44;19.00;99.90
17619;DHT22;8928;51.678;6.074;2023-09-18T16:23:31;18.30;99.90
17619;DHT22;8928;51.678;6.074;2023-09-18T16:26:19;17.60;99.90
17619;DHT22;8928;51.678;6.074;2023-09-18T16:29:06;17.20;99.90
17619;DHT22;8928;51.678;6.074;2023-09-18T16:31:54;17.00;99.90
17619;DHT22;8928;51.678;6.074;2023-09-18T16:34:41;16.80;99.90
17619;DHT22;8928;51.678;6.074;2023-09-18T16:37:30;16.70;99.90
17619;DHT22;8928;51.678;6.074;2023-09-18T16:40:17;16.60;99.90
17619;DHT22;8928;51.678;6.074;2023-09-18T16:43:04;16.60;99.90
17619;DHT22;8928;51.678;6.074;2023-09-18T16:45:51;16.60;99.90
17619;DHT22;8928;51.678;6.074;2023-09-18T16:48:38;16.60;99.90
17619;DHT22;8928;51.678;6.074;2023-09-18T16:51:25;16.60;99.90
17619;DHT22;8928;51.678;6.074;2023-09-18T16:54:14;17.10;99.90
17619;DHT22;8928;51.678;6.074;2023-09-18T16:57:01;17.60;99.90
17619;DHT22;8928;51.678;6.074;2023-09-18T16:59:48;18.00;99.90
17619;DHT22;8928;51.678;6.074;2023-09-18T17:02:35;18.20;99.90
17619;DHT22;8928;51.678;6.074;2023-09-18T17:05:22;18.30;99.90
17619;DHT22;8928;51.678;6.074;2023-09-18T17:08:09;18.30;99.90
17619;DHT22;8928;51.678;6.074;2023-09-18T17:10:57;18.30;99.90
17619;DHT22;8928;51.678;6.074;2023-09-18T17:13:44;18.10;99.90
17619;DHT22;8928;51.678;6.074;2023-09-18T17:16:31;17.80;99.90
17619;DHT22;8928;51.678;6.074;2023-09-18T17:19:21;17.60;99.90
17619;DHT22;8928;51.678;6.074;2023-09-18T17:22:08;17.40;99.90
17619;DHT22;8928;51.678;6.074;2023-09-18T17:24:55;17.30;99.90
17619;DHT22;8928;51.678;6.074;2023-09-18T17:27:44;17.10;99.90
17619;DHT22;8928;51.678;6.074;2023-09-18T17:30:31;17.00;99.90
17619;DHT22;8928;51.678;6.074;2023-09-18T17:33:18;16.90;99.90
17619;DHT22;8928;51.678;6.074;2023-09-18T17:36:05;16.90;99.90
17619;DHT22;8928;51.678;6.074;2023-09-18T17:38:53;16.80;99.90
17619;DHT22;8928;51.678;6.074;2023-09-18T17:41:40;16.80;99.90
17619;DHT22;8928;51.678;6.074;2023-09-18T17:44:29;16.70;99.90
17619;DHT22;8928;51.678;6.074;2023-09-18T17:47:16;16.70;99.90
17619;DHT22;8928;51.678;6.074;2023-09-18T17:50:04;16.70;99.90
17619;DHT22;8928;51.678;6.074;2023-09-18T17:52:51;16.70;99.90
17619;DHT22;8928;51.678;6.074;2023-09-18T17:55:38;16.60;99.90
17619;DHT22;8928;51.678;6.074;2023-09-18T17:58:26;16.60;99.90
17619;DHT22;8928;51.678;6.074;2023-09-18T18:01:14;16.50;99.90
17619;DHT22;8928;51.678;6.074;2023-09-18T18:04:02;16.50;99.90
17619;DHT22;8928;51.678;6.074;2023-09-18T18:06:49;16.50;99.90
17619;DHT22;8928;51.678;6.074;2023-09-18T18:09:36;16.40;99.90